Terminal Aerodrome Forecast
Issued by NWS

Home | Current Version | Previous Version | Text Only | Print | Product List | Glossary On
Versions: 1 2 3 4 5 6 7 8 9 10 11 12 13 14 15 16 17 18 19 20 21 22 23 24 25 26 27 28 29 30 31 32 33 34 35 36 37 38 39 40 41 42 43 44 45 46 47 48
000
FTUS41 KRNK 212333
TAFLWB
TAF
KLWB 212333Z 2200/2224 14005KT P6SM BKN100
     FM220200 14004KT P6SM VCSH BKN100
     FM220400 VRB03KT P6SM VCSH BKN060
     FM220600 00000KT 5SM -SHRA BR OVC060
      TEMPO 2206/2210 2SM -RA OVC030
     FM221000 00000KT 3SM -RA BR SCT006 OVC012
     FM221500 00000KT 2SM -DZ BR BKN006
     FM221800 19004KT 4SM BR BKN010=

USA.gov is the U.S. government's official web portal to all federal, state and local government web resources and services.